sensor_id;sensor_type;location;lat;lon;timestamp;P1;durP1;ratioP1;P2;durP2;ratioP2
71696;SDS011;59528;59.082;37.926;2022-09-02T00:00:03;0.00;;;0.00;;
71696;SDS011;59528;59.082;37.926;2022-09-02T00:02:34;0.00;;;0.00;;
71696;SDS011;59528;59.082;37.926;2022-09-02T00:04:59;0.00;;;0.00;;
71696;SDS011;59528;59.082;37.926;2022-09-02T00:07:25;0.10;;;0.00;;
71696;SDS011;59528;59.082;37.926;2022-09-02T00:09:51;0.10;;;0.00;;
71696;SDS011;59528;59.082;37.926;2022-09-02T00:12:16;0.00;;;0.00;;
71696;SDS011;59528;59.082;37.926;2022-09-02T00:14:42;0.40;;;0.10;;
71696;SDS011;59528;59.082;37.926;2022-09-02T00:17:07;0.13;;;0.03;;
71696;SDS011;59528;59.082;37.926;2022-09-02T00:19:33;0.83;;;0.10;;
71696;SDS011;59528;59.082;37.926;2022-09-02T00:21:59;0.10;;;0.00;;
71696;SDS011;59528;59.082;37.926;2022-09-02T00:24:25;0.10;;;0.10;;
71696;SDS011;59528;59.082;37.926;2022-09-02T00:26:50;0.30;;;0.10;;
71696;SDS011;59528;59.082;37.926;2022-09-02T00:29:16;0.10;;;0.10;;
71696;SDS011;59528;59.082;37.926;2022-09-02T00:31:42;1.17;;;0.10;;
71696;SDS011;59528;59.082;37.926;2022-09-02T00:34:09;0.20;;;0.20;;
71696;SDS011;59528;59.082;37.926;2022-09-02T00:36:35;0.10;;;0.10;;
71696;SDS011;59528;59.082;37.926;2022-09-02T00:39:04;0.30;;;0.20;;
71696;SDS011;59528;59.082;37.926;2022-09-02T00:41:31;0.40;;;0.10;;
71696;SDS011;59528;59.082;37.926;2022-09-02T00:43:59;0.20;;;0.10;;
71696;SDS011;59528;59.082;37.926;2022-09-02T00:46:26;0.20;;;0.20;;
71696;SDS011;59528;59.082;37.926;2022-09-02T00:51:21;0.10;;;0.10;;
71696;SDS011;59528;59.082;37.926;2022-09-02T00:53:47;0.20;;;0.20;;
71696;SDS011;59528;59.082;37.926;2022-09-02T00:56:16;0.30;;;0.17;;
71696;SDS011;59528;59.082;37.926;2022-09-02T00:58:43;1.17;;;0.10;;
71696;SDS011;59528;59.082;37.926;2022-09-02T01:01:09;0.30;;;0.20;;
71696;SDS011;59528;59.082;37.926;2022-09-02T01:03:38;0.20;;;0.20;;
71696;SDS011;59528;59.082;37.926;2022-09-02T01:06:05;0.33;;;0.20;;
71696;SDS011;59528;59.082;37.926;2022-09-02T01:08:35;0.40;;;0.20;;
71696;SDS011;59528;59.082;37.926;2022-09-02T01:11:01;0.10;;;0.10;;
71696;SDS011;59528;59.082;37.926;2022-09-02T01:13:29;0.13;;;0.10;;
71696;SDS011;59528;59.082;37.926;2022-09-02T01:16:00;0.23;;;0.10;;
71696;SDS011;59528;59.082;37.926;2022-09-02T01:18:27;0.43;;;0.10;;
71696;SDS011;59528;59.082;37.926;2022-09-02T01:20:54;0.40;;;0.17;;
71696;SDS011;59528;59.082;37.926;2022-09-02T01:23:20;0.23;;;0.20;;
71696;SDS011;59528;59.082;37.926;2022-09-02T01:25:46;0.10;;;0.10;;
71696;SDS011;59528;59.082;37.926;2022-09-02T01:28:13;0.50;;;0.20;;
71696;SDS011;59528;59.082;37.926;2022-09-02T01:30:39;0.27;;;0.13;;
71696;SDS011;59528;59.082;37.926;2022-09-02T01:33:06;1.07;;;0.37;;
71696;SDS011;59528;59.082;37.926;2022-09-02T01:35:32;0.90;;;0.40;;
71696;SDS011;59528;59.082;37.926;2022-09-02T01:37:58;0.50;;;0.30;;
71696;SDS011;59528;59.082;37.926;2022-09-02T01:40:24;0.43;;;0.30;;
71696;SDS011;59528;59.082;37.926;2022-09-02T01:42:55;1.97;;;0.27;;
71696;SDS011;59528;59.082;37.926;2022-09-02T01:45:23;0.70;;;0.40;;
71696;SDS011;59528;59.082;37.926;2022-09-02T01:47:48;1.00;;;0.60;;
71696;SDS011;59528;59.082;37.926;2022-09-02T01:50:14;0.70;;;0.50;;
71696;SDS011;59528;59.082;37.926;2022-09-02T01:52:40;1.27;;;0.50;;
71696;SDS011;59528;59.082;37.926;2022-09-02T01:55:07;0.87;;;0.70;;
71696;SDS011;59528;59.082;37.926;2022-09-02T01:57:33;1.60;;;0.50;;
71696;SDS011;59528;59.082;37.926;2022-09-02T01:59:59;1.67;;;0.60;;
71696;SDS011;59528;59.082;37.926;2022-09-02T02:02:27;1.93;;;0.60;;
71696;SDS011;59528;59.082;37.926;2022-09-02T02:04:52;3.40;;;0.50;;
71696;SDS011;59528;59.082;37.926;2022-09-02T02:07:19;1.20;;;0.80;;
71696;SDS011;59528;59.082;37.926;2022-09-02T02:09:48;1.60;;;1.00;;
71696;SDS011;59528;59.082;37.926;2022-09-02T02:12:14;1.30;;;0.97;;
71696;SDS011;59528;59.082;37.926;2022-09-02T02:14:43;2.50;;;1.10;;
71696;SDS011;59528;59.082;37.926;2022-09-02T02:17:09;2.37;;;1.10;;
71696;SDS011;59528;59.082;37.926;2022-09-02T02:19:34;1.60;;;1.30;;
71696;SDS011;59528;59.082;37.926;2022-09-02T02:22:00;3.70;;;1.50;;
71696;SDS011;59528;59.082;37.926;2022-09-02T02:24:25;1.80;;;1.10;;
71696;SDS011;59528;59.082;37.926;2022-09-02T02:26:51;1.40;;;1.20;;
71696;SDS011;59528;59.082;37.926;2022-09-02T02:29:19;2.27;;;1.40;;
71696;SDS011;59528;59.082;37.926;2022-09-02T02:31:46;1.77;;;1.20;;
71696;SDS011;59528;59.082;37.926;2022-09-02T02:34:12;2.90;;;1.67;;
71696;SDS011;59528;59.082;37.926;2022-09-02T02:36:38;2.43;;;1.93;;
71696;SDS011;59528;59.082;37.926;2022-09-02T02:39:05;2.83;;;2.30;;
71696;SDS011;59528;59.082;37.926;2022-09-02T02:41:31;3.07;;;2.60;;
71696;SDS011;59528;59.082;37.926;2022-09-02T02:43:57;4.33;;;2.70;;
71696;SDS011;59528;59.082;37.926;2022-09-02T02:46:23;4.93;;;2.97;;
71696;SDS011;59528;59.082;37.926;2022-09-02T02:48:49;3.63;;;2.87;;
71696;SDS011;59528;59.082;37.926;2022-09-02T02:51:15;5.00;;;2.67;;
71696;SDS011;59528;59.082;37.926;2022-09-02T02:53:41;3.87;;;3.00;;
71696;SDS011;59528;59.082;37.926;2022-09-02T02:56:07;4.30;;;2.97;;
71696;SDS011;59528;59.082;37.926;2022-09-02T02:58:32;5.03;;;3.40;;
71696;SDS011;59528;59.082;37.926;2022-09-02T03:00:58;8.43;;;3.00;;
71696;SDS011;59528;59.082;37.926;2022-09-02T03:03:25;7.33;;;3.60;;
71696;SDS011;59528;59.082;37.926;2022-09-02T03:05:56;4.37;;;3.40;;
71696;SDS011;59528;59.082;37.926;2022-09-02T03:08:24;8.50;;;3.60;;
71696;SDS011;59528;59.082;37.926;2022-09-02T03:10:52;8.87;;;3.90;;
71696;SDS011;59528;59.082;37.926;2022-09-02T03:13:23;7.10;;;3.70;;
71696;SDS011;59528;59.082;37.926;2022-09-02T03:15:50;5.60;;;3.33;;
71696;SDS011;59528;59.082;37.926;2022-09-02T03:18:16;9.67;;;3.67;;
71696;SDS011;59528;59.082;37.926;2022-09-02T03:20:45;5.03;;;3.20;;
71696;SDS011;59528;59.082;37.926;2022-09-02T03:23:11;10.03;;;3.63;;
71696;SDS011;59528;59.082;37.926;2022-09-02T03:25:41;4.73;;;2.97;;
71696;SDS011;59528;59.082;37.926;2022-09-02T03:28:14;6.57;;;3.33;;
71696;SDS011;59528;59.082;37.926;2022-09-02T03:30:40;6.70;;;3.20;;
71696;SDS011;59528;59.082;37.926;2022-09-02T03:33:06;10.60;;;3.80;;
71696;SDS011;59528;59.082;37.926;2022-09-02T03:35:33;10.50;;;3.00;;
71696;SDS011;59528;59.082;37.926;2022-09-02T03:37:59;6.93;;;3.03;;
71696;SDS011;59528;59.082;37.926;2022-09-02T03:40:25;4.80;;;2.60;;
71696;SDS011;59528;59.082;37.926;2022-09-02T03:42:53;5.20;;;2.53;;
71696;SDS011;59528;59.082;37.926;2022-09-02T03:45:20;5.17;;;2.50;;
71696;SDS011;59528;59.082;37.926;2022-09-02T03:47:47;4.17;;;2.60;;
71696;SDS011;59528;59.082;37.926;2022-09-02T03:50:22;4.97;;;2.60;;
71696;SDS011;59528;59.082;37.926;2022-09-02T03:52:48;4.20;;;2.40;;
71696;SDS011;59528;59.082;37.926;2022-09-02T03:55:15;6.03;;;2.70;;
71696;SDS011;59528;59.082;37.926;2022-09-02T03:57:40;3.63;;;2.40;;
71696;SDS011;59528;59.082;37.926;2022-09-02T04:00:11;4.93;;;2.50;;
71696;SDS011;59528;59.082;37.926;2022-09-02T04:02:40;2.40;;;2.07;;
71696;SDS011;59528;59.082;37.926;2022-09-02T04:05:09;2.20;;;2.00;;
71696;SDS011;59528;59.082;37.926;2022-09-02T04:07:39;2.93;;;1.77;;
71696;SDS011;59528;59.082;37.926;2022-09-02T04:10:05;3.40;;;1.80;;
71696;SDS011;59528;59.082;37.926;2022-09-02T04:12:36;3.23;;;1.50;;
71696;SDS011;59528;59.082;37.926;2022-09-02T04:15:06;2.57;;;1.30;;
71696;SDS011;59528;59.082;37.926;2022-09-02T04:17:37;2.57;;;1.20;;
71696;SDS011;59528;59.082;37.926;2022-09-02T04:20:04;2.00;;;1.50;;
71696;SDS011;59528;59.082;37.926;2022-09-02T04:22:32;2.20;;;1.13;;
71696;SDS011;59528;59.082;37.926;2022-09-02T04:24:58;2.00;;;1.30;;
71696;SDS011;59528;59.082;37.926;2022-09-02T04:27:24;2.13;;;1.63;;
71696;SDS011;59528;59.082;37.926;2022-09-02T04:29:50;1.57;;;1.43;;
71696;SDS011;59528;59.082;37.926;2022-09-02T04:32:16;5.63;;;1.70;;
71696;SDS011;59528;59.082;37.926;2022-09-02T04:34:41;2.80;;;1.50;;
71696;SDS011;59528;59.082;37.926;2022-09-02T04:37:07;3.40;;;1.50;;
71696;SDS011;59528;59.082;37.926;2022-09-02T04:39:33;1.73;;;1.40;;
71696;SDS011;59528;59.082;37.926;2022-09-02T04:42:00;2.57;;;1.53;;
71696;SDS011;59528;59.082;37.926;2022-09-02T04:44:26;2.93;;;1.57;;
71696;SDS011;59528;59.082;37.926;2022-09-02T04:46:52;3.00;;;1.33;;
71696;SDS011;59528;59.082;37.926;2022-09-02T04:49:20;2.37;;;1.60;;
71696;SDS011;59528;59.082;37.926;2022-09-02T04:51:49;1.47;;;1.27;;
71696;SDS011;59528;59.082;37.926;2022-09-02T04:54:15;3.10;;;1.30;;
71696;SDS011;59528;59.082;37.926;2022-09-02T04:56:48;4.00;;;1.30;;
71696;SDS011;59528;59.082;37.926;2022-09-02T04:59:14;2.27;;;1.37;;
71696;SDS011;59528;59.082;37.926;2022-09-02T05:01:47;2.60;;;1.43;;
71696;SDS011;59528;59.082;37.926;2022-09-02T05:04:18;1.43;;;1.23;;
71696;SDS011;59528;59.082;37.926;2022-09-02T05:06:48;3.40;;;1.50;;
71696;SDS011;59528;59.082;37.926;2022-09-02T05:09:17;4.03;;;1.53;;
71696;SDS011;59528;59.082;37.926;2022-09-02T05:11:51;2.23;;;1.90;;
71696;SDS011;59528;59.082;37.926;2022-09-02T05:14:20;2.10;;;1.77;;
71696;SDS011;59528;59.082;37.926;2022-09-02T05:16:49;2.60;;;1.60;;
71696;SDS011;59528;59.082;37.926;2022-09-02T05:19:18;2.53;;;1.60;;
71696;SDS011;59528;59.082;37.926;2022-09-02T05:21:47;3.07;;;1.73;;
71696;SDS011;59528;59.082;37.926;2022-09-02T05:24:21;2.37;;;1.67;;
71696;SDS011;59528;59.082;37.926;2022-09-02T05:26:48;3.67;;;1.50;;
71696;SDS011;59528;59.082;37.926;2022-09-02T05:29:15;5.13;;;1.50;;
71696;SDS011;59528;59.082;37.926;2022-09-02T05:31:43;1.40;;;1.30;;
71696;SDS011;59528;59.082;37.926;2022-09-02T05:34:12;2.33;;;1.50;;
71696;SDS011;59528;59.082;37.926;2022-09-02T05:36:38;3.00;;;1.70;;
71696;SDS011;59528;59.082;37.926;2022-09-02T05:39:04;2.03;;;1.30;;
71696;SDS011;59528;59.082;37.926;2022-09-02T05:41:35;2.10;;;1.27;;
71696;SDS011;59528;59.082;37.926;2022-09-02T05:44:03;3.93;;;1.30;;
71696;SDS011;59528;59.082;37.926;2022-09-02T05:46:31;2.87;;;1.50;;
71696;SDS011;59528;59.082;37.926;2022-09-02T05:48:58;2.47;;;1.73;;
71696;SDS011;59528;59.082;37.926;2022-09-02T05:51:47;2.67;;;1.40;;
71696;SDS011;59528;59.082;37.926;2022-09-02T05:54:18;3.00;;;1.30;;
71696;SDS011;59528;59.082;37.926;2022-09-02T05:56:47;1.10;;;0.90;;
71696;SDS011;59528;59.082;37.926;2022-09-02T05:59:13;1.93;;;1.17;;
71696;SDS011;59528;59.082;37.926;2022-09-02T06:01:41;1.17;;;0.97;;
71696;SDS011;59528;59.082;37.926;2022-09-02T06:04:06;0.97;;;0.80;;
71696;SDS011;59528;59.082;37.926;2022-09-02T06:06:34;1.00;;;0.70;;
71696;SDS011;59528;59.082;37.926;2022-09-02T06:09:03;1.40;;;0.70;;
71696;SDS011;59528;59.082;37.926;2022-09-02T06:11:30;1.37;;;0.67;;
71696;SDS011;59528;59.082;37.926;2022-09-02T06:13:56;3.00;;;1.00;;
71696;SDS011;59528;59.082;37.926;2022-09-02T06:16:22;1.43;;;0.70;;
71696;SDS011;59528;59.082;37.926;2022-09-02T06:18:48;0.97;;;0.80;;
71696;SDS011;59528;59.082;37.926;2022-09-02T06:21:15;0.90;;;0.80;;
71696;SDS011;59528;59.082;37.926;2022-09-02T06:23:45;1.50;;;1.00;;
71696;SDS011;59528;59.082;37.926;2022-09-02T06:26:12;1.43;;;1.10;;
71696;SDS011;59528;59.082;37.926;2022-09-02T06:28:38;1.20;;;1.00;;
71696;SDS011;59528;59.082;37.926;2022-09-02T06:31:08;1.63;;;1.10;;
71696;SDS011;59528;59.082;37.926;2022-09-02T06:33:34;1.43;;;1.03;;
71696;SDS011;59528;59.082;37.926;2022-09-02T06:36:00;2.10;;;1.33;;
71696;SDS011;59528;59.082;37.926;2022-09-02T06:38:26;2.70;;;1.80;;
71696;SDS011;59528;59.082;37.926;2022-09-02T06:40:52;2.37;;;1.50;;
71696;SDS011;59528;59.082;37.926;2022-09-02T06:43:35;7.80;;;2.80;;
71696;SDS011;59528;59.082;37.926;2022-09-02T06:46:16;5.47;;;3.20;;
71696;SDS011;59528;59.082;37.926;2022-09-02T06:48:43;8.03;;;4.10;;
71696;SDS011;59528;59.082;37.926;2022-09-02T06:51:14;6.40;;;3.70;;
71696;SDS011;59528;59.082;37.926;2022-09-02T06:53:40;6.73;;;4.60;;
71696;SDS011;59528;59.082;37.926;2022-09-02T06:56:07;5.93;;;4.07;;
71696;SDS011;59528;59.082;37.926;2022-09-02T06:58:32;5.63;;;3.30;;
71696;SDS011;59528;59.082;37.926;2022-09-02T07:01:00;4.60;;;3.20;;
71696;SDS011;59528;59.082;37.926;2022-09-02T07:03:26;3.97;;;2.87;;
71696;SDS011;59528;59.082;37.926;2022-09-02T07:06:10;6.30;;;2.53;;
71696;SDS011;59528;59.082;37.926;2022-09-02T07:08:41;5.63;;;2.20;;
71696;SDS011;59528;59.082;37.926;2022-09-02T07:11:14;6.07;;;2.53;;
71696;SDS011;59528;59.082;37.926;2022-09-02T07:13:39;5.03;;;2.40;;
71696;SDS011;59528;59.082;37.926;2022-09-02T07:16:05;3.57;;;2.00;;
71696;SDS011;59528;59.082;37.926;2022-09-02T07:18:33;6.03;;;1.70;;
71696;SDS011;59528;59.082;37.926;2022-09-02T07:20:59;6.60;;;1.80;;
71696;SDS011;59528;59.082;37.926;2022-09-02T07:23:25;5.87;;;1.57;;
71696;SDS011;59528;59.082;37.926;2022-09-02T07:25:51;1.73;;;1.20;;
71696;SDS011;59528;59.082;37.926;2022-09-02T07:28:20;1.90;;;1.27;;
71696;SDS011;59528;59.082;37.926;2022-09-02T07:30:46;3.97;;;2.00;;
71696;SDS011;59528;59.082;37.926;2022-09-02T07:33:16;2.03;;;1.67;;
71696;SDS011;59528;59.082;37.926;2022-09-02T07:35:43;4.90;;;1.97;;
71696;SDS011;59528;59.082;37.926;2022-09-02T07:38:10;3.23;;;1.60;;
71696;SDS011;59528;59.082;37.926;2022-09-02T07:40:38;2.73;;;1.60;;
71696;SDS011;59528;59.082;37.926;2022-09-02T07:43:05;4.23;;;1.40;;
71696;SDS011;59528;59.082;37.926;2022-09-02T07:45:33;2.90;;;1.40;;
71696;SDS011;59528;59.082;37.926;2022-09-02T07:47:59;3.83;;;1.50;;
71696;SDS011;59528;59.082;37.926;2022-09-02T07:50:25;8.53;;;1.70;;
71696;SDS011;59528;59.082;37.926;2022-09-02T07:52:53;4.60;;;1.30;;
71696;SDS011;59528;59.082;37.926;2022-09-02T07:55:18;6.23;;;1.40;;
71696;SDS011;59528;59.082;37.926;2022-09-02T07:57:46;7.40;;;1.30;;
71696;SDS011;59528;59.082;37.926;2022-09-02T08:00:13;5.20;;;1.07;;
71696;SDS011;59528;59.082;37.926;2022-09-02T08:02:41;1.47;;;0.70;;
71696;SDS011;59528;59.082;37.926;2022-09-02T08:05:09;8.53;;;1.00;;
71696;SDS011;59528;59.082;37.926;2022-09-02T08:07:35;3.17;;;1.10;;
71696;SDS011;59528;59.082;37.926;2022-09-02T08:10:00;1.80;;;0.97;;
71696;SDS011;59528;59.082;37.926;2022-09-02T08:12:26;4.57;;;1.20;;
71696;SDS011;59528;59.082;37.926;2022-09-02T08:14:52;3.80;;;0.90;;
71696;SDS011;59528;59.082;37.926;2022-09-02T08:17:18;2.90;;;1.23;;
71696;SDS011;59528;59.082;37.926;2022-09-02T08:19:44;2.73;;;0.90;;
71696;SDS011;59528;59.082;37.926;2022-09-02T08:22:09;2.87;;;1.00;;
71696;SDS011;59528;59.082;37.926;2022-09-02T08:24:35;3.90;;;1.07;;
71696;SDS011;59528;59.082;37.926;2022-09-02T08:27:01;6.27;;;0.90;;
71696;SDS011;59528;59.082;37.926;2022-09-02T08:29:26;2.70;;;0.73;;
71696;SDS011;59528;59.082;37.926;2022-09-02T08:31:52;2.40;;;0.70;;
71696;SDS011;59528;59.082;37.926;2022-09-02T08:34:18;2.00;;;0.80;;
71696;SDS011;59528;59.082;37.926;2022-09-02T08:36:44;2.03;;;0.93;;
71696;SDS011;59528;59.082;37.926;2022-09-02T08:39:10;3.10;;;1.20;;
71696;SDS011;59528;59.082;37.926;2022-09-02T08:42:36;2.50;;;1.30;;
71696;SDS011;59528;59.082;37.926;2022-09-02T08:44:30;4.07;;;1.23;;
71696;SDS011;59528;59.082;37.926;2022-09-02T08:46:57;3.60;;;1.13;;
71696;SDS011;59528;59.082;37.926;2022-09-02T08:49:29;2.40;;;1.03;;
71696;SDS011;59528;59.082;37.926;2022-09-02T08:51:59;1.73;;;1.20;;
71696;SDS011;59528;59.082;37.926;2022-09-02T08:57:09;1.20;;;0.93;;
71696;SDS011;59528;59.082;37.926;2022-09-02T08:59:35;3.07;;;1.03;;
71696;SDS011;59528;59.082;37.926;2022-09-02T09:02:09;1.10;;;0.80;;
71696;SDS011;59528;59.082;37.926;2022-09-02T09:12:27;0.90;;;0.70;;
71696;SDS011;59528;59.082;37.926;2022-09-02T09:20:05;1.47;;;0.90;;
71696;SDS011;59528;59.082;37.926;2022-09-02T09:22:35;0.87;;;0.70;;
71696;SDS011;59528;59.082;37.926;2022-09-02T09:25:02;1.70;;;0.90;;
71696;SDS011;59528;59.082;37.926;2022-09-02T09:27:30;2.27;;;0.90;;
71696;SDS011;59528;59.082;37.926;2022-09-02T09:29:55;2.87;;;1.17;;
71696;SDS011;59528;59.082;37.926;2022-09-02T09:32:35;1.40;;;0.90;;
71696;SDS011;59528;59.082;37.926;2022-09-02T09:37:32;1.30;;;0.60;;
71696;SDS011;59528;59.082;37.926;2022-09-02T09:39:59;2.00;;;0.50;;
71696;SDS011;59528;59.082;37.926;2022-09-02T09:42:32;1.80;;;0.50;;
71696;SDS011;59528;59.082;37.926;2022-09-02T09:44:58;1.10;;;0.70;;
71696;SDS011;59528;59.082;37.926;2022-09-02T09:47:24;3.33;;;0.77;;
71696;SDS011;59528;59.082;37.926;2022-09-02T09:49:51;1.30;;;0.60;;
71696;SDS011;59528;59.082;37.926;2022-09-02T09:52:24;0.50;;;0.47;;
71696;SDS011;59528;59.082;37.926;2022-09-02T09:57:37;1.33;;;0.50;;
71696;SDS011;59528;59.082;37.926;2022-09-02T10:00:09;1.10;;;0.60;;
71696;SDS011;59528;59.082;37.926;2022-09-02T10:02:44;1.83;;;0.50;;
71696;SDS011;59528;59.082;37.926;2022-09-02T10:08:01;1.17;;;0.77;;
71696;SDS011;59528;59.082;37.926;2022-09-02T10:10:28;3.67;;;0.80;;
71696;SDS011;59528;59.082;37.926;2022-09-02T10:12:59;1.03;;;0.70;;
71696;SDS011;59528;59.082;37.926;2022-09-02T10:15:40;4.07;;;1.10;;
71696;SDS011;59528;59.082;37.926;2022-09-02T10:18:10;3.87;;;1.03;;
71696;SDS011;59528;59.082;37.926;2022-09-02T10:28:41;3.67;;;0.60;;
71696;SDS011;59528;59.082;37.926;2022-09-02T10:36:33;5.87;;;0.50;;
71696;SDS011;59528;59.082;37.926;2022-09-02T10:39:05;0.60;;;0.30;;
71696;SDS011;59528;59.082;37.926;2022-09-02T10:41:39;1.00;;;0.67;;
71696;SDS011;59528;59.082;37.926;2022-09-02T10:46:57;1.13;;;0.60;;
71696;SDS011;59528;59.082;37.926;2022-09-02T10:52:06;5.03;;;0.90;;
71696;SDS011;59528;59.082;37.926;2022-09-02T10:57:07;3.93;;;0.80;;
71696;SDS011;59528;59.082;37.926;2022-09-02T11:02:08;1.00;;;0.63;;
71696;SDS011;59528;59.082;37.926;2022-09-02T11:04:40;4.03;;;1.00;;
71696;SDS011;59528;59.082;37.926;2022-09-02T11:07:09;4.20;;;0.70;;
71696;SDS011;59528;59.082;37.926;2022-09-02T11:12:40;4.73;;;1.27;;
71696;SDS011;59528;59.082;37.926;2022-09-02T11:15:20;3.97;;;1.07;;
71696;SDS011;59528;59.082;37.926;2022-09-02T11:25:23;2.87;;;1.00;;
71696;SDS011;59528;59.082;37.926;2022-09-02T11:30:20;3.10;;;1.13;;
71696;SDS011;59528;59.082;37.926;2022-09-02T11:35:41;1.30;;;0.63;;
71696;SDS011;59528;59.082;37.926;2022-09-02T11:40:43;1.43;;;0.93;;
71696;SDS011;59528;59.082;37.926;2022-09-02T11:43:37;3.23;;;1.03;;
71696;SDS011;59528;59.082;37.926;2022-09-02T11:53:59;0.97;;;0.57;;
71696;SDS011;59528;59.082;37.926;2022-09-02T11:56:28;2.53;;;0.70;;
71696;SDS011;59528;59.082;37.926;2022-09-02T11:58:55;1.83;;;0.70;;
71696;SDS011;59528;59.082;37.926;2022-09-02T12:06:21;2.27;;;1.00;;
71696;SDS011;59528;59.082;37.926;2022-09-02T12:13:55;3.80;;;1.00;;
71696;SDS011;59528;59.082;37.926;2022-09-02T12:21:19;2.57;;;0.80;;
71696;SDS011;59528;59.082;37.926;2022-09-02T12:29:28;5.33;;;1.10;;
71696;SDS011;59528;59.082;37.926;2022-09-02T12:31:54;4.80;;;1.20;;
71696;SDS011;59528;59.082;37.926;2022-09-02T12:36:51;3.23;;;1.00;;
71696;SDS011;59528;59.082;37.926;2022-09-02T12:41:52;4.37;;;1.10;;
71696;SDS011;59528;59.082;37.926;2022-09-02T12:57:39;4.60;;;0.90;;
71696;SDS011;59528;59.082;37.926;2022-09-02T13:00:05;6.77;;;1.30;;
71696;SDS011;59528;59.082;37.926;2022-09-02T13:05:03;2.17;;;1.00;;
71696;SDS011;59528;59.082;37.926;2022-09-02T13:33:20;4.33;;;1.50;;
71696;SDS011;59528;59.082;37.926;2022-09-02T13:35:51;4.03;;;1.60;;
71696;SDS011;59528;59.082;37.926;2022-09-02T13:38:21;2.87;;;1.40;;
71696;SDS011;59528;59.082;37.926;2022-09-02T13:40:47;2.27;;;1.50;;
71696;SDS011;59528;59.082;37.926;2022-09-02T13:45:38;3.20;;;1.40;;
71696;SDS011;59528;59.082;37.926;2022-09-02T13:48:08;4.23;;;1.60;;
71696;SDS011;59528;59.082;37.926;2022-09-02T13:50:34;1.87;;;1.13;;
71696;SDS011;59528;59.082;37.926;2022-09-02T13:53:01;3.13;;;1.10;;
71696;SDS011;59528;59.082;37.926;2022-09-02T13:55:28;1.50;;;1.07;;
71696;SDS011;59528;59.082;37.926;2022-09-02T13:57:57;1.37;;;0.97;;
71696;SDS011;59528;59.082;37.926;2022-09-02T14:00:25;3.67;;;1.40;;
71696;SDS011;59528;59.082;37.926;2022-09-02T14:02:53;3.20;;;1.23;;
71696;SDS011;59528;59.082;37.926;2022-09-02T14:05:20;2.70;;;1.43;;
71696;SDS011;59528;59.082;37.926;2022-09-02T14:07:47;3.57;;;1.20;;
71696;SDS011;59528;59.082;37.926;2022-09-02T14:10:17;3.80;;;1.30;;
71696;SDS011;59528;59.082;37.926;2022-09-02T14:12:44;2.83;;;1.03;;
71696;SDS011;59528;59.082;37.926;2022-09-02T14:15:11;3.00;;;1.30;;
71696;SDS011;59528;59.082;37.926;2022-09-02T14:17:37;5.97;;;1.80;;
71696;SDS011;59528;59.082;37.926;2022-09-02T14:20:21;4.03;;;1.50;;
71696;SDS011;59528;59.082;37.926;2022-09-02T14:22:56;3.87;;;1.57;;
71696;SDS011;59528;59.082;37.926;2022-09-02T14:25:23;10.10;;;1.70;;
71696;SDS011;59528;59.082;37.926;2022-09-02T14:27:50;4.10;;;1.30;;
71696;SDS011;59528;59.082;37.926;2022-09-02T14:30:52;5.27;;;1.40;;
71696;SDS011;59528;59.082;37.926;2022-09-02T14:33:15;3.37;;;1.07;;
71696;SDS011;59528;59.082;37.926;2022-09-02T14:35:40;4.13;;;1.40;;
71696;SDS011;59528;59.082;37.926;2022-09-02T14:38:06;3.00;;;1.10;;
71696;SDS011;59528;59.082;37.926;2022-09-02T14:40:38;4.53;;;1.13;;
71696;SDS011;59528;59.082;37.926;2022-09-02T14:43:11;4.97;;;1.10;;
71696;SDS011;59528;59.082;37.926;2022-09-02T14:45:37;3.37;;;1.07;;
71696;SDS011;59528;59.082;37.926;2022-09-02T14:50:59;1.97;;;1.00;;
71696;SDS011;59528;59.082;37.926;2022-09-02T14:53:26;1.20;;;0.80;;
71696;SDS011;59528;59.082;37.926;2022-09-02T14:55:53;1.97;;;0.90;;
71696;SDS011;59528;59.082;37.926;2022-09-02T14:58:20;1.03;;;0.80;;
71696;SDS011;59528;59.082;37.926;2022-09-02T15:00:46;1.07;;;0.90;;
71696;SDS011;59528;59.082;37.926;2022-09-02T15:03:13;1.83;;;0.83;;
71696;SDS011;59528;59.082;37.926;2022-09-02T15:05:40;1.50;;;0.70;;
71696;SDS011;59528;59.082;37.926;2022-09-02T15:08:06;1.20;;;0.70;;
71696;SDS011;59528;59.082;37.926;2022-09-02T15:10:31;2.03;;;0.80;;
71696;SDS011;59528;59.082;37.926;2022-09-02T15:12:57;0.93;;;0.83;;
71696;SDS011;59528;59.082;37.926;2022-09-02T15:15:23;0.90;;;0.70;;
71696;SDS011;59528;59.082;37.926;2022-09-02T15:17:49;1.27;;;0.80;;
71696;SDS011;59528;59.082;37.926;2022-09-02T15:20:15;0.97;;;0.60;;
71696;SDS011;59528;59.082;37.926;2022-09-02T15:22:41;1.00;;;0.60;;
71696;SDS011;59528;59.082;37.926;2022-09-02T15:25:07;0.63;;;0.50;;
71696;SDS011;59528;59.082;37.926;2022-09-02T15:27:33;0.63;;;0.53;;
71696;SDS011;59528;59.082;37.926;2022-09-02T15:29:59;2.17;;;0.70;;
71696;SDS011;59528;59.082;37.926;2022-09-02T15:32:25;0.97;;;0.63;;
71696;SDS011;59528;59.082;37.926;2022-09-02T15:34:51;0.53;;;0.50;;
71696;SDS011;59528;59.082;37.926;2022-09-02T15:37:17;1.27;;;0.60;;
71696;SDS011;59528;59.082;37.926;2022-09-02T15:39:42;1.03;;;0.70;;
71696;SDS011;59528;59.082;37.926;2022-09-02T15:42:08;1.03;;;0.70;;
71696;SDS011;59528;59.082;37.926;2022-09-02T15:44:34;0.83;;;0.43;;
71696;SDS011;59528;59.082;37.926;2022-09-02T15:47:00;1.17;;;0.60;;
71696;SDS011;59528;59.082;37.926;2022-09-02T15:49:26;2.13;;;0.60;;
71696;SDS011;59528;59.082;37.926;2022-09-02T15:51:52;1.70;;;0.60;;
71696;SDS011;59528;59.082;37.926;2022-09-02T15:54:19;1.40;;;0.63;;
71696;SDS011;59528;59.082;37.926;2022-09-02T15:56:45;0.90;;;0.57;;
71696;SDS011;59528;59.082;37.926;2022-09-02T15:59:15;1.90;;;0.60;;
71696;SDS011;59528;59.082;37.926;2022-09-02T16:01:46;1.37;;;0.73;;
71696;SDS011;59528;59.082;37.926;2022-09-02T16:04:12;1.07;;;0.73;;
71696;SDS011;59528;59.082;37.926;2022-09-02T16:06:38;1.10;;;0.57;;
71696;SDS011;59528;59.082;37.926;2022-09-02T16:09:05;0.80;;;0.53;;
71696;SDS011;59528;59.082;37.926;2022-09-02T16:11:30;2.17;;;0.80;;
71696;SDS011;59528;59.082;37.926;2022-09-02T16:13:56;1.40;;;0.67;;
71696;SDS011;59528;59.082;37.926;2022-09-02T16:16:22;1.23;;;0.70;;
71696;SDS011;59528;59.082;37.926;2022-09-02T16:18:48;1.20;;;0.60;;
71696;SDS011;59528;59.082;37.926;2022-09-02T16:21:15;1.60;;;0.67;;
71696;SDS011;59528;59.082;37.926;2022-09-02T16:23:41;1.23;;;0.70;;
71696;SDS011;59528;59.082;37.926;2022-09-02T16:28:39;0.83;;;0.70;;
71696;SDS011;59528;59.082;37.926;2022-09-02T16:31:06;2.00;;;0.90;;
71696;SDS011;59528;59.082;37.926;2022-09-02T16:33:32;1.97;;;0.80;;
71696;SDS011;59528;59.082;37.926;2022-09-02T16:35:57;2.33;;;0.90;;
71696;SDS011;59528;59.082;37.926;2022-09-02T16:38:23;1.30;;;0.80;;
71696;SDS011;59528;59.082;37.926;2022-09-02T16:40:50;1.27;;;0.77;;
71696;SDS011;59528;59.082;37.926;2022-09-02T16:43:15;1.10;;;0.90;;
71696;SDS011;59528;59.082;37.926;2022-09-02T16:45:41;1.77;;;0.90;;
71696;SDS011;59528;59.082;37.926;2022-09-02T16:48:07;2.90;;;1.07;;
71696;SDS011;59528;59.082;37.926;2022-09-02T16:50:32;1.47;;;0.70;;
71696;SDS011;59528;59.082;37.926;2022-09-02T16:52:58;1.60;;;0.87;;
71696;SDS011;59528;59.082;37.926;2022-09-02T16:55:24;1.63;;;0.93;;
71696;SDS011;59528;59.082;37.926;2022-09-02T16:57:49;2.43;;;0.90;;
71696;SDS011;59528;59.082;37.926;2022-09-02T17:00:15;1.27;;;0.73;;
71696;SDS011;59528;59.082;37.926;2022-09-02T17:02:41;1.10;;;0.60;;
71696;SDS011;59528;59.082;37.926;2022-09-02T17:05:07;2.67;;;1.07;;
71696;SDS011;59528;59.082;37.926;2022-09-02T17:07:35;1.37;;;0.80;;